createdAt,value
2018-03-28T00:00:14.383Z,45.50
2018-03-28T00:02:44.275Z,45.40
2018-03-28T00:05:14.887Z,45.20
2018-03-28T00:07:45.017Z,45.70
2018-03-28T00:10:14.866Z,45.70
2018-03-28T00:12:44.753Z,46.00
2018-03-28T00:15:15.870Z,45.80
2018-03-28T00:17:46.950Z,45.80
2018-03-28T00:20:17.654Z,46.30
2018-03-28T00:22:48.466Z,46.50
2018-03-28T00:25:20.283Z,46.80
2018-03-28T00:27:50.225Z,46.80
2018-03-28T00:30:23.205Z,47.10
2018-03-28T00:32:53.981Z,47.10
2018-03-28T00:35:25.506Z,47.30
2018-03-28T00:37:56.255Z,47.20
2018-03-28T00:40:28.366Z,47.30
2018-03-28T00:42:59.174Z,47.30
2018-03-28T00:45:31.550Z,47.10
2018-03-28T00:48:03.026Z,47.30
2018-03-28T00:50:32.631Z,47.40
2018-03-28T00:53:02.306Z,47.50
2018-03-28T00:55:32.028Z,47.70
2018-03-28T00:58:01.670Z,48.00
2018-03-28T01:00:31.371Z,48.30
2018-03-28T01:03:01.058Z,48.60
2018-03-28T01:05:33.198Z,48.90
2018-03-28T01:08:03.863Z,49.40
2018-03-28T01:10:35.342Z,48.80
2018-03-28T01:13:08.141Z,49.10
2018-03-28T01:15:39.779Z,49.10
2018-03-28T01:18:12.050Z,49.10
2018-03-28T01:20:42.972Z,49.70
2018-03-28T01:23:16.967Z,49.20
2018-03-28T01:25:47.070Z,49.20
2018-03-28T01:28:17.096Z,49.20
2018-03-28T01:30:48.028Z,49.50
2018-03-28T01:33:18.802Z,49.30
2018-03-28T01:35:48.495Z,49.40
2018-03-28T01:38:19.021Z,48.90
2018-03-28T01:40:48.856Z,48.90
2018-03-28T01:43:18.496Z,48.90
2018-03-28T01:45:48.209Z,48.90
2018-03-28T01:48:17.818Z,50.40
2018-03-28T01:50:47.527Z,49.90
2018-03-28T01:53:17.198Z,51.30
2018-03-28T01:55:47.182Z,50.50
2018-03-28T01:58:17.958Z,49.90
2018-03-28T02:00:47.873Z,49.80
2018-03-28T02:03:17.519Z,50.40
2018-03-28T02:05:47.179Z,50.60
2018-03-28T02:08:16.832Z,51.00
2018-03-28T02:10:46.507Z,50.80
2018-03-28T02:13:16.157Z,51.10
2018-03-28T02:15:46.588Z,51.00
2018-03-28T02:18:17.775Z,51.20
2018-03-28T02:20:48.431Z,51.00
2018-03-28T02:23:19.951Z,51.00
2018-03-28T02:25:49.930Z,51.20
2018-03-28T02:28:20.674Z,51.00
2018-03-28T02:30:51.226Z,52.00
2018-03-28T02:33:23.637Z,51.60
2018-03-28T02:35:55.012Z,51.80
2018-03-28T02:38:24.953Z,51.80
2018-03-28T02:40:56.247Z,52.00
2018-03-28T02:43:27.027Z,52.20
2018-03-28T02:45:57.980Z,51.80
2018-03-28T02:48:28.147Z,51.80
2018-03-28T02:51:00.162Z,52.00
2018-03-28T02:53:30.071Z,52.00
2018-03-28T02:55:59.837Z,52.40
2018-03-28T02:58:30.582Z,52.90
2018-03-28T03:01:02.389Z,52.70
2018-03-28T03:03:33.092Z,52.70
2018-03-28T03:06:03.220Z,52.90
2018-03-28T03:08:34.686Z,53.30
2018-03-28T03:11:05.412Z,53.30
2018-03-28T03:13:35.358Z,52.90
2018-03-28T03:16:06.102Z,53.20
2018-03-28T03:18:35.917Z,53.20
2018-03-28T03:21:05.818Z,53.40
2018-03-28T03:23:36.640Z,53.10
2018-03-28T03:26:07.503Z,52.90
2018-03-28T03:28:37.435Z,52.90
2018-03-28T03:31:08.685Z,53.10
2018-03-28T03:33:39.555Z,53.20
2018-03-28T03:36:09.442Z,53.30
2018-03-28T03:38:40.331Z,53.20
2018-03-28T03:41:11.800Z,52.90
2018-03-28T03:43:41.874Z,52.90
2018-03-28T03:46:12.517Z,53.20
2018-03-28T03:48:42.554Z,53.20
2018-03-28T03:51:12.566Z,53.30
2018-03-28T03:53:42.654Z,53.30
2018-03-28T03:56:13.332Z,53.30
2018-03-28T03:58:44.821Z,53.60
2018-03-28T04:01:15.971Z,53.60
2018-03-28T04:03:46.876Z,53.80
2018-03-28T04:06:17.494Z,53.80
2018-03-28T04:08:47.439Z,53.70
2018-03-28T04:11:18.173Z,54.00
2018-03-28T04:13:49.720Z,54.20
2018-03-28T04:16:20.917Z,53.90
2018-03-28T04:18:51.225Z,53.90
2018-03-28T04:21:21.014Z,53.90
2018-03-28T04:23:51.863Z,54.70
2018-03-28T04:26:22.085Z,54.70
2018-03-28T04:28:53.027Z,54.30
2018-03-28T04:31:24.637Z,54.50
2018-03-28T04:33:54.776Z,54.60
2018-03-28T04:36:25.142Z,54.10
2018-03-28T04:38:55.760Z,54.30
2018-03-28T04:41:27.402Z,55.50
2018-03-28T04:43:57.652Z,55.50
2018-03-28T04:46:27.568Z,56.10
2018-03-28T04:48:59.589Z,54.70
2018-03-28T04:51:29.407Z,54.70
2018-03-28T04:53:59.142Z,54.40
2018-03-28T04:56:28.944Z,54.30
2018-03-28T04:58:58.648Z,54.40
2018-03-28T05:01:29.130Z,54.50
2018-03-28T05:03:59.531Z,54.70
2018-03-28T05:06:29.206Z,54.60
2018-03-28T05:08:58.830Z,54.60
2018-03-28T05:11:28.511Z,54.50
2018-03-28T05:13:58.234Z,54.30
2018-03-28T05:16:27.870Z,54.60
2018-03-28T05:18:57.577Z,54.60
2018-03-28T05:21:27.226Z,54.50
2018-03-28T05:23:57.748Z,55.90
2018-03-28T05:26:27.413Z,55.90
2018-03-28T05:28:57.106Z,56.80
2018-03-28T05:31:26.745Z,57.50
2018-03-28T05:33:56.620Z,56.60
2018-03-28T05:36:26.277Z,55.50
2018-03-28T05:38:56.836Z,55.10
2018-03-28T05:41:26.546Z,54.90
2018-03-28T05:43:56.177Z,55.20
2018-03-28T05:46:25.926Z,55.20
2018-03-28T05:48:56.303Z,55.30
2018-03-28T05:51:25.978Z,55.30
2018-03-28T05:53:55.640Z,54.90
2018-03-28T05:56:25.406Z,55.00
2018-03-28T05:58:55.015Z,55.00
2018-03-28T06:01:25.454Z,55.20
2018-03-28T06:03:55.128Z,55.20
2018-03-28T06:06:24.878Z,55.20
2018-03-28T06:08:54.502Z,55.60
2018-03-28T06:11:24.210Z,55.10
2018-03-28T06:13:53.885Z,55.10
2018-03-28T06:16:23.502Z,55.00
2018-03-28T06:18:53.934Z,54.50
2018-03-28T06:21:24.390Z,55.00
2018-03-28T06:23:54.029Z,55.00
2018-03-28T06:26:23.710Z,54.60
2018-03-28T06:28:53.331Z,54.00
2018-03-28T06:31:23.014Z,53.90
2018-03-28T06:33:53.390Z,53.70
2018-03-28T06:36:23.079Z,53.60
2018-03-28T06:38:52.749Z,53.30
2018-03-28T06:41:22.424Z,52.90
2018-03-28T06:43:52.103Z,52.80
2018-03-28T06:46:22.484Z,52.00
2018-03-28T06:48:52.186Z,52.00
2018-03-28T06:51:22.841Z,51.80
2018-03-28T06:53:53.440Z,50.90
2018-03-28T06:56:23.086Z,50.80
2018-03-28T06:58:52.758Z,50.00
2018-03-28T07:01:22.402Z,49.40
2018-03-28T07:03:52.074Z,49.30
2018-03-28T07:06:21.694Z,49.30
2018-03-28T07:08:51.394Z,49.40
2018-03-28T07:11:21.782Z,48.90
2018-03-28T07:13:51.748Z,48.80
2018-03-28T07:16:21.389Z,48.60
2018-03-28T07:18:51.068Z,48.60
2018-03-28T07:21:21.528Z,48.30
2018-03-28T07:23:51.191Z,48.30
2018-03-28T07:26:20.821Z,48.20
2018-03-28T07:28:50.517Z,47.70
2018-03-28T07:31:20.142Z,47.10
2018-03-28T07:33:50.611Z,46.70
2018-03-28T07:36:20.443Z,46.70
2018-03-28T07:38:50.246Z,46.40
2018-03-28T07:41:19.936Z,46.30
2018-03-28T07:43:49.574Z,45.80
2018-03-28T07:46:19.246Z,45.60
2018-03-28T07:48:49.684Z,45.80
2018-03-28T07:51:20.068Z,45.50
2018-03-28T07:53:49.750Z,45.50
2018-03-28T07:56:19.516Z,44.70
2018-03-28T07:58:49.234Z,44.20
2018-03-28T08:01:19.682Z,43.40
2018-03-28T08:03:50.089Z,42.70
2018-03-28T08:06:20.527Z,42.70
2018-03-28T08:08:50.929Z,43.20
2018-03-28T08:11:20.877Z,43.20
2018-03-28T08:13:51.342Z,41.30
2018-03-28T08:16:21.012Z,41.20
2018-03-28T08:18:50.775Z,41.80
2018-03-28T08:21:20.389Z,41.40
2018-03-28T08:23:50.063Z,40.90
2018-03-28T08:26:20.438Z,40.00
2018-03-28T08:28:50.104Z,39.80
2018-03-28T08:31:20.493Z,39.10
2018-03-28T08:33:50.169Z,39.00
2018-03-28T08:36:19.875Z,37.90
2018-03-28T08:38:49.497Z,37.00
2018-03-28T08:41:19.178Z,36.60
2018-03-28T08:43:48.842Z,36.10
2018-03-28T08:46:19.486Z,36.00
2018-03-28T08:48:50.063Z,34.50
2018-03-28T08:51:19.671Z,34.40
2018-03-28T08:53:49.334Z,34.70
2018-03-28T08:56:18.946Z,32.90
2018-03-28T08:58:48.589Z,32.40
2018-03-28T09:01:18.246Z,32.50
2018-03-28T09:03:48.671Z,31.70
2018-03-28T09:06:19.103Z,33.30
2018-03-28T09:08:48.706Z,33.20
2018-03-28T09:11:19.303Z,34.40
2018-03-28T09:13:48.906Z,34.30
2018-03-28T09:16:18.550Z,33.40
2018-03-28T09:18:48.146Z,32.60
2018-03-28T09:21:17.817Z,31.70
2018-03-28T09:23:47.602Z,30.50
2018-03-28T09:26:17.966Z,32.50
2018-03-28T09:28:47.842Z,32.50
2018-03-28T09:31:18.232Z,31.20
2018-03-28T09:33:47.885Z,31.00
2018-03-28T09:36:18.324Z,32.50
2018-03-28T09:38:48.687Z,31.10
2018-03-28T09:41:18.481Z,31.10
2018-03-28T09:43:48.119Z,31.10
2018-03-28T09:46:17.719Z,29.80
2018-03-28T09:48:47.407Z,30.30
2018-03-28T09:51:17.791Z,31.70
2018-03-28T09:53:48.580Z,29.70
2018-03-28T09:56:18.247Z,29.50
2018-03-28T09:58:48.027Z,29.50
2018-03-28T10:01:24.129Z,30.20
2018-03-28T10:03:53.899Z,31.10
2018-03-28T10:06:24.640Z,28.90
2018-03-28T10:08:54.691Z,28.90
2018-03-28T10:11:24.387Z,29.60
2018-03-28T10:13:55.130Z,27.80
2018-03-28T10:16:24.952Z,27.80
2018-03-28T10:18:54.624Z,29.10
2018-03-28T10:21:24.312Z,29.50
2018-03-28T10:23:54.036Z,27.00
2018-03-28T10:26:24.447Z,26.00
2018-03-28T10:28:54.184Z,26.00
2018-03-28T10:31:24.575Z,26.80
2018-03-28T10:33:54.292Z,26.80
2018-03-28T10:36:23.908Z,26.80
2018-03-28T10:38:53.683Z,27.10
2018-03-28T10:41:23.639Z,27.60
2018-03-28T10:43:53.347Z,27.90
2018-03-28T10:46:22.985Z,27.20
2018-03-28T10:48:53.454Z,26.20
2018-03-28T10:51:23.104Z,26.20
2018-03-28T10:53:52.797Z,26.40
2018-03-28T10:56:22.430Z,25.40
2018-03-28T10:58:52.112Z,25.00
2018-03-28T11:01:21.732Z,24.60
2018-03-28T11:03:51.409Z,23.60
2018-03-28T11:06:21.042Z,23.60
2018-03-28T11:08:50.779Z,24.50
2018-03-28T11:11:20.482Z,25.00
2018-03-28T11:13:50.112Z,26.50
2018-03-28T11:16:20.057Z,25.30
2018-03-28T11:18:49.670Z,25.70
2018-03-28T11:21:20.110Z,26.20
2018-03-28T11:23:50.562Z,25.60
2018-03-28T11:26:20.325Z,25.60
2018-03-28T11:28:50.014Z,25.00
2018-03-28T11:33:55.576Z,25.20
2018-03-28T11:36:26.332Z,25.60
2018-03-28T11:38:56.024Z,25.50
2018-03-28T11:41:25.747Z,24.70
2018-03-28T11:43:55.444Z,23.30
2018-03-28T11:46:25.072Z,23.40
2018-03-28T11:48:54.738Z,25.20
2018-03-28T11:51:25.197Z,24.30
2018-03-28T11:53:54.839Z,24.30
2018-03-28T11:56:24.530Z,22.50
2018-03-28T11:58:54.454Z,23.50
2018-03-28T12:01:25.270Z,23.60
2018-03-28T12:03:54.903Z,23.30
2018-03-28T12:06:24.597Z,24.20
2018-03-28T12:08:54.282Z,22.80
2018-03-28T12:11:24.696Z,22.80
2018-03-28T12:13:54.357Z,22.80
2018-03-28T12:16:24.005Z,22.40
2018-03-28T12:18:53.722Z,21.50
2018-03-28T12:21:23.420Z,21.90
2018-03-28T12:23:54.088Z,22.60
2018-03-28T12:26:23.838Z,22.60
2018-03-28T12:28:53.530Z,21.90
2018-03-28T12:31:23.999Z,22.60
2018-03-28T12:33:53.799Z,22.50
2018-03-28T12:36:23.538Z,22.30
2018-03-28T12:38:53.484Z,21.80
2018-03-28T12:41:23.211Z,21.50
2018-03-28T12:43:52.860Z,22.00
2018-03-28T12:46:22.587Z,21.50
2018-03-28T12:48:52.211Z,21.40
2018-03-28T12:51:22.228Z,20.80
2018-03-28T12:53:53.934Z,20.50
2018-03-28T12:56:24.474Z,20.80
2018-03-28T12:58:54.891Z,20.20
2018-03-28T13:01:24.618Z,20.20
2018-03-28T13:03:54.282Z,20.20
2018-03-28T13:06:23.997Z,19.60
2018-03-28T13:08:53.983Z,18.70
2018-03-28T13:11:24.027Z,20.00
2018-03-28T13:13:53.748Z,20.30
2018-03-28T13:16:24.236Z,20.10
2018-03-28T13:18:54.699Z,17.40
2018-03-28T13:21:24.594Z,17.30
2018-03-28T13:23:55.042Z,20.90
2018-03-28T13:26:24.744Z,20.80
2018-03-28T13:28:54.378Z,19.70
2018-03-28T13:31:24.255Z,19.00
2018-03-28T13:33:54.659Z,18.70
2018-03-28T13:36:24.343Z,18.60
2018-03-28T13:38:53.966Z,19.90
2018-03-28T13:41:24.517Z,18.90
2018-03-28T13:43:54.249Z,18.80
2018-03-28T13:46:24.663Z,17.90
2018-03-28T13:48:54.367Z,17.80
2018-03-28T13:51:24.104Z,19.20
2018-03-28T13:53:54.536Z,16.90
2018-03-28T13:56:25.003Z,17.60
2018-03-28T13:58:55.744Z,18.30
2018-03-28T14:01:25.635Z,18.40
2018-03-28T14:03:56.040Z,18.60
2018-03-28T14:06:25.792Z,18.50
2018-03-28T14:08:55.692Z,17.50
2018-03-28T14:11:26.197Z,17.00
2018-03-28T14:13:56.119Z,16.80
2018-03-28T14:16:26.077Z,16.60
2018-03-28T14:18:56.467Z,16.20
2018-03-28T14:21:26.339Z,15.70
2018-03-28T14:23:56.192Z,16.70
2018-03-28T14:26:25.886Z,16.40
2018-03-28T14:28:55.592Z,16.20
2018-03-28T14:31:26.429Z,16.10
2018-03-28T14:33:56.198Z,16.10
2018-03-28T14:36:26.622Z,17.20
2018-03-28T14:38:57.127Z,16.80
2018-03-28T14:41:26.877Z,16.80
2018-03-28T14:43:57.327Z,16.50
2018-03-28T14:46:27.123Z,16.40
2018-03-28T14:48:57.607Z,17.70
2018-03-28T14:51:27.289Z,17.60
2018-03-28T14:53:57.006Z,16.80
2018-03-28T14:56:26.711Z,16.50
2018-03-28T14:58:56.459Z,16.70
2018-03-28T15:01:26.360Z,17.80
2018-03-28T15:03:56.405Z,18.40
2018-03-28T15:06:26.967Z,19.70
2018-03-28T15:08:57.062Z,19.60
2018-03-28T15:11:26.741Z,18.70
2018-03-28T15:13:56.560Z,18.70
2018-03-28T15:16:26.293Z,18.30
2018-03-28T15:18:55.979Z,17.90
2018-03-28T15:21:25.747Z,18.50
2018-03-28T15:23:55.398Z,18.00
2018-03-28T15:26:25.179Z,17.60
2018-03-28T15:28:54.966Z,17.60
2018-03-28T15:31:25.642Z,18.50
2018-03-28T15:33:55.310Z,18.40
2018-03-28T15:36:25.926Z,19.10
2018-03-28T15:41:34.014Z,18.70
2018-03-28T15:44:03.671Z,18.40
2018-03-28T15:46:33.391Z,18.60
2018-03-28T15:49:04.182Z,20.30
2018-03-28T15:51:33.898Z,20.30
2018-03-28T15:54:04.524Z,20.20
2018-03-28T15:56:34.526Z,20.10
2018-03-28T15:59:05.098Z,21.10
2018-03-28T16:01:35.538Z,21.70
2018-03-28T16:04:06.089Z,21.80
2018-03-28T16:06:36.074Z,21.80
2018-03-28T16:09:06.784Z,22.10
2018-03-28T16:11:36.619Z,22.00
2018-03-28T16:14:06.263Z,22.40
2018-03-28T16:16:36.058Z,23.50
2018-03-28T16:19:07.344Z,24.10
2018-03-28T16:21:37.158Z,24.10
2018-03-28T16:24:07.892Z,25.00
2018-03-28T16:26:38.586Z,25.20
2018-03-28T16:29:08.238Z,25.20
2018-03-28T16:31:37.959Z,25.40
2018-03-28T16:34:07.907Z,25.80
2018-03-28T16:36:37.578Z,26.50
2018-03-28T16:39:07.362Z,26.60
2018-03-28T16:41:36.999Z,27.20
2018-03-28T16:44:06.676Z,27.10
2018-03-28T16:46:36.347Z,27.50
2018-03-28T16:49:06.430Z,27.30
2018-03-28T16:51:36.846Z,28.00
2018-03-28T16:54:06.795Z,28.10
2018-03-28T16:56:37.167Z,28.50
2018-03-28T16:59:07.825Z,28.80
2018-03-28T17:01:37.538Z,28.80
2018-03-28T17:04:08.026Z,29.80
2018-03-28T17:06:37.668Z,29.40
2018-03-28T17:09:08.240Z,30.00
2018-03-28T17:11:38.659Z,30.60
2018-03-28T17:14:09.115Z,30.70
2018-03-28T17:19:09.146Z,31.00
2018-03-28T17:21:39.566Z,32.00
2018-03-28T17:24:10.009Z,32.40
2018-03-28T17:26:39.736Z,32.40
2018-03-28T17:29:09.376Z,32.60
2018-03-28T17:31:39.128Z,32.90
2018-03-28T17:34:08.778Z,33.10
2018-03-28T17:36:38.525Z,33.30
2018-03-28T17:39:09.031Z,33.30
2018-03-28T17:41:38.934Z,33.40
2018-03-28T17:44:08.641Z,33.30
2018-03-28T17:46:38.343Z,33.10
2018-03-28T17:49:07.977Z,33.10
2018-03-28T17:51:37.735Z,33.20
2018-03-28T17:54:07.366Z,33.40
2018-03-28T17:56:37.115Z,33.50
2018-03-28T17:59:06.745Z,33.50
2018-03-28T18:01:36.486Z,33.90
2018-03-28T18:04:06.353Z,33.80
2018-03-28T18:06:36.052Z,34.00
2018-03-28T18:09:07.523Z,34.10
2018-03-28T18:11:37.282Z,34.10
2018-03-28T18:14:06.974Z,34.40
2018-03-28T18:16:36.874Z,34.80
2018-03-28T18:19:06.540Z,35.10
2018-03-28T18:21:36.394Z,35.50
2018-03-28T18:24:06.085Z,36.00
2018-03-28T18:26:36.586Z,36.60
2018-03-28T18:29:06.463Z,36.60
2018-03-28T18:31:36.207Z,37.10
2018-03-28T18:34:06.070Z,37.40
2018-03-28T18:36:36.481Z,38.00
2018-03-28T18:39:06.457Z,38.00
2018-03-28T18:41:36.171Z,37.90
2018-03-28T18:44:06.729Z,38.20
2018-03-28T18:46:36.496Z,38.50
2018-03-28T18:49:06.296Z,38.50
2018-03-28T18:51:37.739Z,39.30
2018-03-28T18:54:09.118Z,39.40
2018-03-28T18:56:38.940Z,39.30
2018-03-28T18:59:09.558Z,38.20
2018-03-28T19:01:39.349Z,39.50
2018-03-28T19:04:09.145Z,39.70
2018-03-28T19:06:39.901Z,40.10
2018-03-28T19:09:10.382Z,40.10
2018-03-28T19:11:41.026Z,40.10
2018-03-28T19:14:10.753Z,40.30
2018-03-28T19:16:41.666Z,40.40
2018-03-28T19:19:11.511Z,40.40
2018-03-28T19:21:41.281Z,40.40
2018-03-28T19:24:11.074Z,40.70
2018-03-28T19:26:41.537Z,41.50
2018-03-28T19:29:11.479Z,41.00
2018-03-28T19:31:42.200Z,41.50
2018-03-28T19:34:12.073Z,41.40
2018-03-28T19:36:41.794Z,41.60
2018-03-28T19:39:11.602Z,41.60
2018-03-28T19:41:41.421Z,41.50
2018-03-28T19:44:11.949Z,42.50
2018-03-28T19:46:42.506Z,43.10
2018-03-28T19:49:12.958Z,43.10
2018-03-28T19:51:42.676Z,43.10
2018-03-28T19:54:12.311Z,43.30
2018-03-28T19:56:43.055Z,43.10
2018-03-28T19:59:13.644Z,43.00
2018-03-28T20:01:43.367Z,43.10
2018-03-28T20:04:14.106Z,43.30
2018-03-28T20:06:43.842Z,43.40
2018-03-28T20:09:13.706Z,43.90
2018-03-28T20:11:43.435Z,43.90
2018-03-28T20:14:13.190Z,43.90
2018-03-28T20:16:43.190Z,44.10
2018-03-28T20:19:13.003Z,44.10
2018-03-28T20:21:42.644Z,44.60
2018-03-28T20:24:12.451Z,44.10
2018-03-28T20:26:42.120Z,44.70
2018-03-28T20:29:12.632Z,44.40
2018-03-28T20:31:42.367Z,44.40
2018-03-28T20:34:13.071Z,44.50
2018-03-28T20:36:42.859Z,44.50
2018-03-28T20:39:12.686Z,45.00
2018-03-28T20:41:42.332Z,45.00
2018-03-28T20:44:12.033Z,45.70
2018-03-28T20:46:41.744Z,45.90
2018-03-28T20:49:11.472Z,46.00
2018-03-28T20:51:41.137Z,46.50
2018-03-28T20:54:10.996Z,46.20
2018-03-28T20:56:40.706Z,46.60
2018-03-28T20:59:10.406Z,46.90
2018-03-28T21:01:40.135Z,47.00
2018-03-28T21:04:09.924Z,46.70
2018-03-28T21:06:39.878Z,46.20
2018-03-28T21:09:10.481Z,46.00
2018-03-28T21:11:40.408Z,45.90
2018-03-28T21:14:10.355Z,45.90
2018-03-28T21:16:40.892Z,45.90
2018-03-28T21:19:11.507Z,46.10
2018-03-28T21:21:41.387Z,46.10
2018-03-28T21:24:11.305Z,46.70
2018-03-28T21:26:41.149Z,46.20
2018-03-28T21:29:11.038Z,46.30
2018-03-28T21:31:41.109Z,46.30
2018-03-28T21:34:11.742Z,46.50
2018-03-28T21:36:42.272Z,46.60
2018-03-28T21:39:12.871Z,46.60
2018-03-28T21:41:43.009Z,46.60
2018-03-28T21:44:12.844Z,46.60
2018-03-28T21:46:43.513Z,46.80
2018-03-28T21:49:13.269Z,46.80
2018-03-28T21:51:43.093Z,46.70
2018-03-28T21:54:13.840Z,47.00
2018-03-28T21:56:43.591Z,47.00
2018-03-28T21:59:13.545Z,47.00
2018-03-28T22:01:44.403Z,47.20
2018-03-28T22:04:14.253Z,47.20
2018-03-28T22:06:44.024Z,47.50
2018-03-28T22:09:14.770Z,47.80
2018-03-28T22:11:44.837Z,47.90
2018-03-28T22:14:14.634Z,48.70
2018-03-28T22:16:45.266Z,48.70
2018-03-28T22:19:15.898Z,48.90
2018-03-28T22:21:46.430Z,48.70
2018-03-28T22:24:16.257Z,48.60
2018-03-28T22:26:46.789Z,49.00
2018-03-28T22:29:17.456Z,48.90
2018-03-28T22:31:47.239Z,48.90
2018-03-28T22:34:17.074Z,49.20
2018-03-28T22:36:46.837Z,49.10
2018-03-28T22:39:16.567Z,49.40
2018-03-28T22:41:46.206Z,49.90
2018-03-28T22:44:16.686Z,50.20
2018-03-28T22:46:46.509Z,50.20
2018-03-28T22:49:17.124Z,50.10
2018-03-28T22:51:46.937Z,50.10
2018-03-28T22:54:16.822Z,50.90
2018-03-28T22:56:47.286Z,51.00
2018-03-28T22:59:17.219Z,51.60
2018-03-28T23:01:47.652Z,51.10
2018-03-28T23:04:17.351Z,51.10
2018-03-28T23:06:47.040Z,51.50
2018-03-28T23:09:16.804Z,52.10
2018-03-28T23:11:46.795Z,52.50
2018-03-28T23:14:16.514Z,52.60
2018-03-28T23:16:46.166Z,52.70
2018-03-28T23:19:15.876Z,52.70
2018-03-28T23:21:45.864Z,53.00
2018-03-28T23:24:16.315Z,53.20
2018-03-28T23:26:46.056Z,53.70
2018-03-28T23:29:15.859Z,53.70
2018-03-28T23:31:45.636Z,53.90
2018-03-28T23:34:16.327Z,54.00
2018-03-28T23:36:46.354Z,54.00
2018-03-28T23:39:16.766Z,53.60
2018-03-28T23:41:46.455Z,53.70
2018-03-28T23:44:16.156Z,53.60
2018-03-28T23:46:46.564Z,54.40
2018-03-28T23:49:16.287Z,54.40
2018-03-28T23:51:46.094Z,54.30
2018-03-28T23:54:15.804Z,54.50
2018-03-28T23:56:45.456Z,54.20
2018-03-28T23:59:15.157Z,53.60
